createdAt,value
2019-03-27T00:01:29.629Z,75.41
2019-03-27T00:04:16.949Z,76.06
2019-03-27T00:07:04.683Z,75.88
2019-03-27T00:09:52.514Z,75.88
2019-03-27T00:12:40.351Z,75.41
2019-03-27T00:15:27.574Z,75.28
2019-03-27T00:18:15.095Z,75.37
2019-03-27T00:21:02.725Z,75.87
2019-03-27T00:23:50.253Z,74.81
2019-03-27T00:26:37.881Z,75.22
2019-03-27T00:29:25.847Z,76.58
2019-03-27T00:32:13.351Z,76.17
2019-03-27T00:35:01.076Z,76.24
2019-03-27T00:37:48.396Z,76.23
2019-03-27T00:40:35.615Z,76.36
2019-03-27T00:43:22.937Z,76.43
2019-03-27T00:46:10.359Z,76.01
2019-03-27T00:48:57.897Z,75.88
2019-03-27T00:51:45.514Z,75.67
2019-03-27T00:54:32.636Z,75.17
2019-03-27T00:57:20.260Z,75.39
2019-03-27T01:00:17.106Z,75.93
2019-03-27T01:03:04.529Z,75.87
2019-03-27T01:05:51.851Z,75.04
2019-03-27T01:08:39.281Z,74.83
2019-03-27T01:11:27.007Z,74.87
2019-03-27T01:14:15.864Z,74.85
2019-03-27T01:17:03.875Z,74.45
2019-03-27T01:19:56.548Z,74.14
2019-03-27T01:22:44.232Z,74.49
2019-03-27T01:25:32.477Z,74.68
2019-03-27T01:28:20.057Z,74.82
2019-03-27T01:31:07.370Z,75.23
2019-03-27T01:33:55.309Z,75.24
2019-03-27T01:36:42.835Z,76.15
2019-03-27T01:39:30.261Z,76.73
2019-03-27T01:42:17.887Z,76.36
2019-03-27T01:45:07.673Z,76.61
2019-03-27T01:47:54.989Z,76.54
2019-03-27T01:50:42.421Z,75.37
2019-03-27T01:53:29.634Z,74.76
2019-03-27T01:56:17.332Z,74.54
2019-03-27T01:59:04.992Z,75.06
2019-03-27T02:01:52.203Z,74.56
2019-03-27T02:04:39.945Z,74.48
2019-03-27T02:07:27.474Z,74.59
2019-03-27T02:10:15.075Z,74.29
2019-03-27T02:13:02.424Z,74.78
2019-03-27T02:15:50.357Z,74.54
2019-03-27T02:18:37.678Z,73.96
2019-03-27T02:21:25.205Z,73.96
2019-03-27T02:24:12.835Z,74.17
2019-03-27T02:27:00.564Z,74.29
2019-03-27T02:29:48.400Z,74.52
2019-03-27T02:32:35.618Z,74.15
2019-03-27T02:35:23.160Z,74.09
2019-03-27T02:38:10.876Z,74.18
2019-03-27T02:40:58.200Z,74.57
2019-03-27T02:43:46.109Z,74.99
2019-03-27T02:46:33.766Z,75.06
2019-03-27T02:49:21.086Z,74.60
2019-03-27T02:52:08.612Z,75.01
2019-03-27T02:54:55.636Z,75.59
2019-03-27T02:57:43.151Z,75.17
2019-03-27T03:00:31.090Z,74.51
2019-03-27T03:03:18.211Z,74.86
2019-03-27T03:06:06.041Z,74.74
2019-03-27T03:08:52.952Z,73.83
2019-03-27T03:11:40.685Z,74.44
2019-03-27T03:14:28.208Z,75.09
2019-03-27T03:17:16.146Z,77.06
2019-03-27T03:20:04.018Z,76.07
2019-03-27T03:22:51.811Z,77.06
2019-03-27T03:25:39.143Z,77.01
2019-03-27T03:28:26.875Z,76.69
2019-03-27T03:31:14.396Z,76.54
2019-03-27T03:34:01.611Z,76.62
2019-03-27T03:36:49.955Z,77.03
2019-03-27T03:39:37.283Z,76.63
2019-03-27T03:42:24.703Z,77.60
2019-03-27T03:45:12.900Z,76.34
2019-03-27T03:48:00.302Z,78.50
2019-03-27T03:50:47.998Z,76.43
2019-03-27T03:53:36.366Z,78.25
2019-03-27T03:56:25.009Z,78.13
2019-03-27T03:59:13.439Z,76.91
2019-03-27T04:02:03.539Z,76.93
2019-03-27T04:04:51.572Z,76.28
2019-03-27T04:07:38.689Z,76.60
2019-03-27T04:10:26.115Z,77.59
2019-03-27T04:13:13.642Z,76.97
2019-03-27T04:16:01.186Z,76.50
2019-03-27T04:18:48.594Z,76.24
2019-03-27T04:21:36.528Z,76.75
2019-03-27T04:24:23.952Z,76.89
2019-03-27T04:27:11.392Z,76.13
2019-03-27T04:29:58.999Z,75.83
2019-03-27T04:32:46.836Z,76.61
2019-03-27T04:35:34.467Z,76.09
2019-03-27T04:38:22.095Z,77.07
2019-03-27T04:41:09.724Z,78.55
2019-03-27T04:43:56.842Z,82.15
2019-03-27T04:46:44.577Z,82.90
2019-03-27T04:49:31.998Z,81.81
2019-03-27T04:52:19.931Z,82.41
2019-03-27T04:55:07.976Z,84.90
2019-03-27T04:57:55.294Z,83.80
2019-03-27T05:00:42.616Z,81.49
2019-03-27T05:03:30.262Z,79.28
2019-03-27T05:06:31.620Z,78.27
2019-03-27T05:12:44.942Z,76.99
2019-03-27T05:15:32.686Z,77.23
2019-03-27T05:18:20.301Z,77.58
2019-03-27T05:21:08.032Z,77.19
2019-03-27T05:23:55.663Z,79.90
2019-03-27T05:26:43.293Z,78.70
2019-03-27T05:29:30.919Z,77.29
2019-03-27T05:32:18.142Z,80.33
2019-03-27T05:35:06.915Z,81.38
2019-03-27T05:37:54.730Z,80.89
2019-03-27T05:40:41.948Z,78.73
2019-03-27T05:43:29.374Z,78.40
2019-03-27T05:46:16.799Z,76.72
2019-03-27T05:49:03.917Z,77.28
2019-03-27T05:51:51.450Z,78.49
2019-03-27T05:54:39.785Z,79.81
2019-03-27T05:57:27.516Z,82.13
2019-03-27T06:00:16.894Z,83.76
2019-03-27T06:03:04.982Z,83.69
2019-03-27T06:05:52.455Z,82.11
2019-03-27T06:08:39.984Z,82.76
2019-03-27T06:11:27.404Z,82.80
2019-03-27T06:14:14.829Z,82.25
2019-03-27T06:17:02.154Z,80.01
2019-03-27T06:19:49.369Z,80.42
2019-03-27T06:22:37.100Z,78.90
2019-03-27T06:25:24.230Z,79.51
2019-03-27T06:28:11.434Z,79.69
2019-03-27T06:30:59.168Z,78.10
2019-03-27T06:33:47.822Z,77.60
2019-03-27T06:36:35.347Z,78.25
2019-03-27T06:39:22.875Z,77.38
2019-03-27T06:42:09.993Z,77.56
2019-03-27T06:44:57.720Z,78.71
2019-03-27T06:47:45.149Z,79.30
2019-03-27T06:50:32.588Z,78.28
2019-03-27T06:53:20.302Z,80.76
2019-03-27T06:56:07.832Z,83.02
2019-03-27T06:58:55.221Z,82.78
2019-03-27T07:01:42.602Z,80.76
2019-03-27T07:04:29.995Z,78.03
2019-03-27T07:07:17.429Z,77.32
2019-03-27T07:10:08.122Z,77.60
2019-03-27T07:12:55.654Z,77.31
2019-03-27T07:15:43.290Z,76.79
2019-03-27T07:18:40.086Z,77.12
2019-03-27T07:21:19.975Z,76.91
2019-03-27T07:24:07.597Z,77.48
2019-03-27T07:26:55.127Z,76.76
2019-03-27T07:29:42.550Z,76.07
2019-03-27T07:32:30.278Z,76.06
2019-03-27T07:35:18.481Z,75.95
2019-03-27T07:38:06.382Z,75.89
2019-03-27T07:40:53.882Z,74.75
2019-03-27T07:43:42.062Z,75.63
2019-03-27T07:46:29.842Z,75.13
2019-03-27T07:49:17.508Z,75.20
2019-03-27T07:52:04.942Z,74.44
2019-03-27T07:54:53.583Z,74.45
2019-03-27T07:57:41.489Z,74.56
2019-03-27T08:00:32.378Z,73.68
2019-03-27T08:03:19.931Z,73.22
2019-03-27T08:06:07.460Z,73.96
2019-03-27T08:08:57.711Z,73.71
2019-03-27T08:11:45.210Z,73.63
2019-03-27T08:14:32.886Z,72.82
2019-03-27T08:17:20.432Z,72.77
2019-03-27T08:20:08.472Z,72.83
2019-03-27T08:22:57.617Z,72.84
2019-03-27T08:25:45.503Z,72.92
2019-03-27T08:28:33.300Z,72.29
2019-03-27T08:31:21.505Z,72.99
2019-03-27T08:34:08.661Z,72.81
2019-03-27T08:36:56.206Z,72.62
2019-03-27T08:39:43.612Z,72.67
2019-03-27T08:42:31.143Z,71.72
2019-03-27T08:45:19.790Z,71.66
2019-03-27T08:48:08.350Z,72.22
2019-03-27T08:50:55.770Z,72.13
2019-03-27T08:53:43.605Z,71.79
2019-03-27T08:56:31.231Z,69.25
2019-03-27T08:59:19.265Z,69.67
2019-03-27T09:02:06.894Z,69.52
2019-03-27T09:04:54.729Z,69.14
2019-03-27T09:07:42.463Z,69.72
2019-03-27T09:10:29.851Z,69.23
2019-03-27T09:13:18.136Z,67.55
2019-03-27T09:16:05.766Z,67.72
2019-03-27T09:18:56.532Z,67.65
2019-03-27T09:21:46.286Z,68.13
2019-03-27T09:24:35.532Z,67.81
2019-03-27T09:27:25.484Z,67.83
2019-03-27T09:30:14.549Z,67.34
2019-03-27T09:33:02.018Z,65.17
2019-03-27T09:35:53.420Z,66.70
2019-03-27T09:38:43.127Z,66.65
2019-03-27T09:41:31.213Z,65.09
2019-03-27T09:44:21.426Z,65.11
2019-03-27T09:47:10.157Z,65.25
2019-03-27T09:50:04.421Z,64.18
2019-03-27T09:52:52.415Z,65.98
2019-03-27T09:55:40.940Z,64.78
2019-03-27T09:58:29.995Z,64.24
2019-03-27T10:01:17.927Z,63.88
2019-03-27T10:04:05.776Z,63.12
2019-03-27T10:06:53.672Z,63.45
2019-03-27T10:09:42.322Z,63.34
2019-03-27T10:12:30.390Z,62.55
2019-03-27T10:15:17.921Z,63.09
2019-03-27T10:18:06.529Z,63.00
2019-03-27T10:20:53.891Z,62.53
2019-03-27T10:23:41.877Z,63.30
2019-03-27T10:26:29.352Z,62.77
2019-03-27T10:29:17.082Z,61.96
2019-03-27T10:32:04.814Z,62.21
2019-03-27T10:34:52.342Z,60.89
2019-03-27T10:37:40.071Z,59.16
2019-03-27T10:40:28.008Z,60.94
2019-03-27T10:43:15.943Z,59.25
2019-03-27T10:46:03.675Z,57.88
2019-03-27T10:48:52.821Z,57.83
2019-03-27T10:51:39.856Z,57.69
2019-03-27T10:54:27.180Z,56.57
2019-03-27T10:57:14.501Z,57.59
2019-03-27T11:00:02.025Z,56.88
2019-03-27T11:02:49.655Z,57.84
2019-03-27T11:05:37.489Z,55.81
2019-03-27T11:08:24.789Z,53.91
2019-03-27T11:11:12.136Z,54.86
2019-03-27T11:13:59.558Z,55.01
2019-03-27T11:16:47.084Z,55.74
2019-03-27T11:19:34.606Z,54.20
2019-03-27T11:22:22.340Z,53.87
2019-03-27T11:25:11.095Z,53.97
2019-03-27T11:27:58.110Z,51.01
2019-03-27T11:30:48.400Z,53.50
2019-03-27T11:33:36.131Z,51.26
2019-03-27T11:36:23.758Z,50.35
2019-03-27T11:39:11.290Z,49.96
2019-03-27T11:42:00.818Z,49.07
2019-03-27T11:44:48.287Z,50.80
2019-03-27T11:47:35.709Z,50.70
2019-03-27T11:50:23.236Z,51.29
2019-03-27T11:53:10.766Z,50.47
2019-03-27T11:55:58.187Z,48.86
2019-03-27T11:58:45.920Z,49.58
2019-03-27T12:01:39.586Z,49.27
2019-03-27T12:04:22.405Z,50.68
2019-03-27T12:07:09.930Z,51.62
2019-03-27T12:09:57.357Z,50.50
2019-03-27T12:12:48.076Z,51.17
2019-03-27T12:15:39.871Z,50.99
2019-03-27T12:18:27.410Z,48.43
2019-03-27T12:21:15.142Z,48.93
2019-03-27T12:24:02.570Z,49.46
2019-03-27T12:26:50.100Z,49.20
2019-03-27T12:29:37.413Z,50.00
2019-03-27T12:32:25.242Z,50.36
2019-03-27T12:35:12.469Z,49.96
2019-03-27T12:38:00.300Z,50.55
2019-03-27T12:40:48.134Z,49.59
2019-03-27T12:43:35.661Z,49.88
2019-03-27T12:46:23.086Z,49.92
2019-03-27T12:49:10.920Z,48.48
2019-03-27T12:51:58.549Z,49.65
2019-03-27T12:54:46.074Z,48.68
2019-03-27T12:57:33.601Z,47.56
2019-03-27T13:00:22.115Z,48.40
2019-03-27T13:03:09.784Z,47.60
2019-03-27T13:05:56.803Z,46.67
2019-03-27T13:08:44.124Z,47.35
2019-03-27T13:11:31.549Z,46.56
2019-03-27T13:14:19.273Z,44.30
2019-03-27T13:17:06.905Z,45.18
2019-03-27T13:19:54.430Z,45.56
2019-03-27T13:22:42.067Z,47.81
2019-03-27T13:25:29.695Z,45.48
2019-03-27T13:28:17.241Z,45.75
2019-03-27T13:31:04.753Z,42.84
2019-03-27T13:33:51.969Z,46.42
2019-03-27T13:36:41.235Z,43.52
2019-03-27T13:39:28.874Z,43.04
2019-03-27T13:42:16.087Z,44.74
2019-03-27T13:45:05.567Z,44.74
2019-03-27T13:47:53.382Z,44.92
2019-03-27T13:50:41.317Z,44.50
2019-03-27T13:53:28.741Z,44.20
2019-03-27T13:56:15.756Z,44.21
2019-03-27T13:59:03.285Z,42.91
2019-03-27T14:01:50.400Z,43.72
2019-03-27T14:04:37.927Z,43.07
2019-03-27T14:07:25.455Z,42.54
2019-03-27T14:10:13.391Z,43.32
2019-03-27T14:13:00.514Z,42.31
2019-03-27T14:15:48.031Z,44.23
2019-03-27T14:18:35.867Z,43.18
2019-03-27T14:21:23.578Z,42.42
2019-03-27T14:24:11.122Z,41.96
2019-03-27T14:26:58.550Z,43.11
2019-03-27T14:29:46.074Z,43.20
2019-03-27T14:32:33.504Z,42.75
2019-03-27T14:35:21.347Z,42.88
2019-03-27T14:38:10.193Z,44.57
2019-03-27T14:40:57.822Z,42.13
2019-03-27T14:43:45.040Z,42.72
2019-03-27T14:46:33.476Z,44.06
2019-03-27T14:49:21.014Z,42.07
2019-03-27T14:52:08.784Z,42.95
2019-03-27T14:54:56.273Z,42.55
2019-03-27T14:57:44.310Z,42.06
2019-03-27T15:00:32.146Z,43.53
2019-03-27T15:03:19.690Z,42.58
2019-03-27T15:06:06.997Z,42.12
2019-03-27T15:08:54.724Z,42.62
2019-03-27T15:11:42.869Z,43.55
2019-03-27T15:14:30.292Z,42.25
2019-03-27T15:17:17.920Z,42.72
2019-03-27T15:20:09.952Z,42.75
2019-03-27T15:22:57.067Z,42.88
2019-03-27T15:25:45.106Z,43.36
2019-03-27T15:28:32.838Z,43.57
2019-03-27T15:31:21.050Z,43.75
2019-03-27T15:34:08.822Z,43.62
2019-03-27T15:36:56.647Z,44.65
2019-03-27T15:39:44.381Z,44.67
2019-03-27T15:42:31.935Z,44.48
2019-03-27T15:45:19.737Z,45.39
2019-03-27T15:48:07.066Z,46.00
2019-03-27T15:50:58.737Z,44.68
2019-03-27T15:53:43.550Z,45.38
2019-03-27T15:56:31.176Z,45.63
2019-03-27T15:59:18.700Z,44.94
2019-03-27T16:02:07.380Z,45.58
2019-03-27T16:04:54.678Z,46.08
2019-03-27T16:07:42.204Z,45.38
2019-03-27T16:10:29.732Z,45.33
2019-03-27T16:13:17.877Z,45.09
2019-03-27T16:16:05.194Z,45.24
2019-03-27T16:18:53.176Z,44.60
2019-03-27T16:21:40.763Z,45.63
2019-03-27T16:24:28.495Z,44.98
2019-03-27T16:27:15.915Z,45.41
2019-03-27T16:30:03.772Z,45.27
2019-03-27T16:32:51.504Z,46.64
2019-03-27T16:35:39.312Z,45.99
2019-03-27T16:38:26.839Z,46.41
2019-03-27T16:41:13.957Z,47.18
2019-03-27T16:44:01.689Z,47.28
2019-03-27T16:46:49.012Z,47.62
2019-03-27T16:49:36.540Z,47.07
2019-03-27T16:52:23.962Z,48.34
2019-03-27T16:55:11.886Z,47.51
2019-03-27T16:57:59.632Z,48.24
2019-03-27T17:00:47.129Z,48.23
2019-03-27T17:03:34.476Z,48.59
2019-03-27T17:06:22.626Z,48.26
2019-03-27T17:09:09.871Z,48.86
2019-03-27T17:11:57.261Z,48.86
2019-03-27T17:14:44.791Z,48.81
2019-03-27T17:17:32.218Z,49.54
2019-03-27T17:20:19.944Z,50.37
2019-03-27T17:23:17.954Z,50.14
2019-03-27T17:25:56.906Z,50.93
2019-03-27T17:28:44.471Z,50.87
2019-03-27T17:31:32.317Z,50.91
2019-03-27T17:34:19.530Z,51.14
2019-03-27T17:37:07.357Z,51.00
2019-03-27T17:39:54.371Z,50.96
2019-03-27T17:42:41.898Z,51.16
2019-03-27T17:45:29.529Z,51.30
2019-03-27T17:48:17.368Z,51.91
2019-03-27T17:51:04.888Z,51.89
2019-03-27T17:53:52.720Z,52.12
2019-03-27T17:56:40.864Z,52.15
2019-03-27T17:59:28.122Z,52.37
2019-03-27T18:02:15.715Z,52.17
2019-03-27T18:05:03.663Z,52.21
2019-03-27T18:07:51.380Z,53.33
2019-03-27T18:10:38.499Z,53.18
2019-03-27T18:13:26.360Z,53.61
2019-03-27T18:16:13.459Z,54.01
2019-03-27T18:19:00.871Z,54.09
2019-03-27T18:21:48.704Z,54.11
2019-03-27T18:24:36.235Z,53.67
2019-03-27T18:27:24.939Z,53.38
2019-03-27T18:30:13.402Z,53.62
2019-03-27T18:33:01.173Z,54.23
2019-03-27T18:35:48.392Z,54.07
2019-03-27T18:38:35.940Z,54.01
2019-03-27T18:41:24.468Z,54.32
2019-03-27T18:44:12.216Z,53.71
2019-03-27T18:46:59.721Z,54.35
2019-03-27T18:49:47.613Z,53.63
2019-03-27T18:52:35.087Z,54.36
2019-03-27T18:55:26.816Z,54.48
2019-03-27T18:58:11.683Z,54.75
2019-03-27T19:00:59.818Z,55.17
2019-03-27T19:03:47.543Z,55.07
2019-03-27T19:06:35.074Z,54.90
2019-03-27T19:09:22.627Z,54.86
2019-03-27T19:12:10.225Z,54.68
2019-03-27T19:14:57.866Z,54.20
2019-03-27T19:17:45.176Z,54.10
2019-03-27T19:20:32.830Z,54.46
2019-03-27T19:23:20.742Z,54.42
2019-03-27T19:26:08.370Z,54.20
2019-03-27T19:28:56.102Z,54.69
2019-03-27T19:31:43.936Z,55.15
2019-03-27T19:34:31.673Z,55.24
2019-03-27T19:37:19.607Z,55.74
2019-03-27T19:40:07.361Z,55.56
2019-03-27T19:42:55.376Z,56.21
2019-03-27T19:45:42.797Z,56.47
2019-03-27T19:48:30.938Z,56.47
2019-03-27T19:51:18.467Z,56.95
2019-03-27T19:54:06.402Z,56.69
2019-03-27T19:56:55.775Z,55.98
2019-03-27T19:59:43.297Z,55.87
2019-03-27T20:02:30.825Z,56.05
2019-03-27T20:05:18.725Z,55.58
2019-03-27T20:08:06.183Z,55.78
2019-03-27T20:10:53.618Z,56.33
2019-03-27T20:13:41.139Z,56.93
2019-03-27T20:16:28.867Z,56.78
2019-03-27T20:19:16.810Z,56.25
2019-03-27T20:22:04.534Z,56.35
2019-03-27T20:24:51.702Z,56.79
2019-03-27T20:27:39.488Z,57.10
2019-03-27T20:30:27.424Z,57.00
2019-03-27T20:33:14.855Z,57.29
2019-03-27T20:36:03.125Z,57.62
2019-03-27T20:38:51.131Z,57.43
2019-03-27T20:41:38.247Z,57.16
2019-03-27T20:44:25.464Z,56.96
2019-03-27T20:47:15.964Z,57.77
2019-03-27T20:50:04.001Z,57.65
2019-03-27T20:52:51.634Z,57.53
2019-03-27T20:55:39.566Z,58.06
2019-03-27T20:58:27.502Z,58.18
2019-03-27T21:01:15.131Z,58.84
2019-03-27T21:04:03.162Z,58.91
2019-03-27T21:06:50.629Z,59.19
2019-03-27T21:09:38.528Z,58.72
2019-03-27T21:12:26.165Z,58.83
2019-03-27T21:15:13.889Z,58.68
2019-03-27T21:18:01.525Z,59.30
2019-03-27T21:20:49.250Z,59.20
2019-03-27T21:23:36.572Z,59.12
2019-03-27T21:26:23.693Z,59.05
2019-03-27T21:29:11.114Z,59.16
2019-03-27T21:31:58.342Z,59.30
2019-03-27T21:34:46.065Z,59.16
2019-03-27T21:37:33.593Z,59.51
2019-03-27T21:40:21.441Z,59.27
2019-03-27T21:43:09.263Z,59.37
2019-03-27T21:45:56.788Z,59.86
2019-03-27T21:48:44.211Z,60.00
2019-03-27T21:51:32.177Z,60.61
2019-03-27T21:54:19.778Z,60.24
2019-03-27T21:57:07.198Z,60.76
2019-03-27T21:59:54.980Z,60.83
2019-03-27T22:02:42.663Z,61.03
2019-03-27T22:05:29.764Z,61.15
2019-03-27T22:08:17.511Z,61.20
2019-03-27T22:11:04.942Z,60.91
2019-03-27T22:13:52.667Z,60.96
2019-03-27T22:16:40.094Z,60.97
2019-03-27T22:19:27.617Z,61.28
2019-03-27T22:22:15.458Z,60.74
2019-03-27T22:25:03.083Z,61.28
2019-03-27T22:27:50.503Z,61.35
2019-03-27T22:30:38.350Z,60.99
2019-03-27T22:33:26.173Z,61.48
2019-03-27T22:36:14.010Z,61.65
2019-03-27T22:39:01.227Z,61.98
2019-03-27T22:41:49.165Z,61.48
2019-03-27T22:44:36.590Z,61.42
2019-03-27T22:47:24.112Z,61.57
2019-03-27T22:50:11.638Z,62.18
2019-03-27T22:52:59.373Z,61.61
2019-03-27T22:55:50.108Z,62.05
2019-03-27T22:58:35.756Z,61.78
2019-03-27T23:01:22.871Z,61.44
2019-03-27T23:04:11.260Z,62.05
2019-03-27T23:06:58.845Z,61.70
2019-03-27T23:09:46.278Z,62.18
2019-03-27T23:12:33.804Z,61.81
2019-03-27T23:15:21.738Z,61.80
2019-03-27T23:18:08.751Z,61.73
2019-03-27T23:20:56.276Z,61.79
2019-03-27T23:23:44.113Z,61.64
2019-03-27T23:26:31.638Z,61.61
2019-03-27T23:29:18.763Z,62.10
2019-03-27T23:32:06.688Z,62.36
2019-03-27T23:34:54.417Z,62.64
2019-03-27T23:37:46.526Z,65.13
2019-03-27T23:40:38.311Z,65.80
2019-03-27T23:43:25.506Z,64.93
2019-03-27T23:46:13.136Z,64.38
2019-03-27T23:49:00.451Z,64.52
2019-03-27T23:51:48.132Z,64.45
2019-03-27T23:54:35.707Z,64.67
2019-03-27T23:57:23.336Z,63.94
